sensor_id;sensor_type;location;lat;lon;timestamp;P1;durP1;ratioP1;P2;durP2;ratioP2
54416;SDS011;40326;51.220;7.250;2022-08-18T00:02:12;60.05;;;39.47;;
54416;SDS011;40326;51.220;7.250;2022-08-18T00:04:39;61.03;;;39.53;;
54416;SDS011;40326;51.220;7.250;2022-08-18T00:07:06;59.90;;;38.60;;
54416;SDS011;40326;51.220;7.250;2022-08-18T00:09:34;68.70;;;42.38;;
54416;SDS011;40326;51.220;7.250;2022-08-18T00:12:02;76.05;;;44.28;;
54416;SDS011;40326;51.220;7.250;2022-08-18T00:14:31;65.63;;;40.25;;
54416;SDS011;40326;51.220;7.250;2022-08-18T00:16:57;61.42;;;40.15;;
54416;SDS011;40326;51.220;7.250;2022-08-18T00:19:23;66.80;;;41.55;;
54416;SDS011;40326;51.220;7.250;2022-08-18T00:21:50;74.18;;;44.15;;
54416;SDS011;40326;51.220;7.250;2022-08-18T00:24:15;70.13;;;42.33;;
54416;SDS011;40326;51.220;7.250;2022-08-18T00:26:41;77.78;;;44.05;;
54416;SDS011;40326;51.220;7.250;2022-08-18T00:29:07;72.30;;;43.95;;
54416;SDS011;40326;51.220;7.250;2022-08-18T00:31:33;69.05;;;41.70;;
54416;SDS011;40326;51.220;7.250;2022-08-18T00:33:59;57.50;;;38.75;;
54416;SDS011;40326;51.220;7.250;2022-08-18T00:36:25;63.95;;;39.05;;
54416;SDS011;40326;51.220;7.250;2022-08-18T00:38:51;65.68;;;41.30;;
54416;SDS011;40326;51.220;7.250;2022-08-18T00:41:17;64.82;;;41.00;;
54416;SDS011;40326;51.220;7.250;2022-08-18T00:43:47;58.90;;;38.10;;
54416;SDS011;40326;51.220;7.250;2022-08-18T00:46:20;87.50;;;48.63;;
54416;SDS011;40326;51.220;7.250;2022-08-18T00:48:48;68.97;;;41.75;;
54416;SDS011;40326;51.220;7.250;2022-08-18T00:51:59;56.45;;;37.65;;
54416;SDS011;40326;51.220;7.250;2022-08-18T00:54:05;67.82;;;40.08;;
54416;SDS011;40326;51.220;7.250;2022-08-18T00:57:01;65.97;;;40.53;;
54416;SDS011;40326;51.220;7.250;2022-08-18T00:59:34;55.67;;;35.45;;
54416;SDS011;40326;51.220;7.250;2022-08-18T01:02:02;49.80;;;33.63;;
54416;SDS011;40326;51.220;7.250;2022-08-18T01:04:32;52.47;;;33.00;;
54416;SDS011;40326;51.220;7.250;2022-08-18T01:07:09;53.38;;;34.50;;
54416;SDS011;40326;51.220;7.250;2022-08-18T01:09:41;62.00;;;38.28;;
54416;SDS011;40326;51.220;7.250;2022-08-18T01:12:07;59.22;;;36.55;;
54416;SDS011;40326;51.220;7.250;2022-08-18T01:14:35;68.97;;;40.53;;
54416;SDS011;40326;51.220;7.250;2022-08-18T01:17:01;70.00;;;41.35;;
54416;SDS011;40326;51.220;7.250;2022-08-18T01:22:37;63.05;;;39.65;;
54416;SDS011;40326;51.220;7.250;2022-08-18T01:25:14;65.53;;;38.50;;
54416;SDS011;40326;51.220;7.250;2022-08-18T01:28:00;55.60;;;35.08;;
54416;SDS011;40326;51.220;7.250;2022-08-18T01:30:28;43.05;;;30.50;;
54416;SDS011;40326;51.220;7.250;2022-08-18T01:32:56;69.03;;;40.53;;
54416;SDS011;40326;51.220;7.250;2022-08-18T01:35:23;90.32;;;45.10;;
54416;SDS011;40326;51.220;7.250;2022-08-18T01:37:51;71.25;;;41.25;;
54416;SDS011;40326;51.220;7.250;2022-08-18T01:40:20;89.15;;;43.78;;
54416;SDS011;40326;51.220;7.250;2022-08-18T01:42:47;85.68;;;43.65;;
54416;SDS011;40326;51.220;7.250;2022-08-18T01:45:13;75.82;;;41.20;;
54416;SDS011;40326;51.220;7.250;2022-08-18T01:47:41;73.25;;;40.40;;
54416;SDS011;40326;51.220;7.250;2022-08-18T01:50:07;84.93;;;44.85;;
54416;SDS011;40326;51.220;7.250;2022-08-18T01:52:35;92.20;;;48.15;;
54416;SDS011;40326;51.220;7.250;2022-08-18T01:55:01;91.25;;;47.63;;
54416;SDS011;40326;51.220;7.250;2022-08-18T01:57:27;97.97;;;47.88;;
54416;SDS011;40326;51.220;7.250;2022-08-18T01:59:53;90.97;;;47.97;;
54416;SDS011;40326;51.220;7.250;2022-08-18T02:02:20;80.45;;;45.05;;
54416;SDS011;40326;51.220;7.250;2022-08-18T02:04:52;99.00;;;49.10;;
54416;SDS011;40326;51.220;7.250;2022-08-18T02:07:23;100.50;;;50.67;;
54416;SDS011;40326;51.220;7.250;2022-08-18T02:09:49;105.90;;;52.97;;
54416;SDS011;40326;51.220;7.250;2022-08-18T02:12:14;121.65;;;56.78;;
54416;SDS011;40326;51.220;7.250;2022-08-18T02:14:40;116.20;;;54.97;;
54416;SDS011;40326;51.220;7.250;2022-08-18T02:17:06;116.97;;;54.20;;
54416;SDS011;40326;51.220;7.250;2022-08-18T02:19:34;107.85;;;50.63;;
54416;SDS011;40326;51.220;7.250;2022-08-18T02:22:02;100.35;;;51.78;;
54416;SDS011;40326;51.220;7.250;2022-08-18T02:24:29;103.07;;;50.60;;
54416;SDS011;40326;51.220;7.250;2022-08-18T02:26:55;115.90;;;53.92;;
54416;SDS011;40326;51.220;7.250;2022-08-18T02:29:21;113.50;;;50.58;;
54416;SDS011;40326;51.220;7.250;2022-08-18T02:31:46;107.05;;;51.58;;
54416;SDS011;40326;51.220;7.250;2022-08-18T02:34:12;146.50;;;61.22;;
54416;SDS011;40326;51.220;7.250;2022-08-18T02:36:48;161.93;;;63.17;;
54416;SDS011;40326;51.220;7.250;2022-08-18T02:39:20;267.55;;;73.40;;
54416;SDS011;40326;51.220;7.250;2022-08-18T02:42:01;550.03;;;93.07;;
54416;SDS011;40326;51.220;7.250;2022-08-18T02:44:35;631.15;;;102.90;;
54416;SDS011;40326;51.220;7.250;2022-08-18T02:47:02;374.92;;;81.15;;
54416;SDS011;40326;51.220;7.250;2022-08-18T02:49:28;350.65;;;81.03;;
54416;SDS011;40326;51.220;7.250;2022-08-18T02:51:54;481.05;;;83.50;;
54416;SDS011;40326;51.220;7.250;2022-08-18T02:54:20;689.17;;;103.70;;
54416;SDS011;40326;51.220;7.250;2022-08-18T02:56:48;300.98;;;79.28;;
54416;SDS011;40326;51.220;7.250;2022-08-18T02:59:19;398.30;;;85.38;;
54416;SDS011;40326;51.220;7.250;2022-08-18T03:01:49;271.48;;;77.32;;
54416;SDS011;40326;51.220;7.250;2022-08-18T03:04:18;168.77;;;65.20;;
54416;SDS011;40326;51.220;7.250;2022-08-18T03:06:46;217.57;;;71.25;;
54416;SDS011;40326;51.220;7.250;2022-08-18T03:09:13;176.20;;;65.93;;
54416;SDS011;40326;51.220;7.250;2022-08-18T03:11:41;317.73;;;78.20;;
54416;SDS011;40326;51.220;7.250;2022-08-18T03:14:07;205.35;;;73.30;;
54416;SDS011;40326;51.220;7.250;2022-08-18T03:16:33;171.05;;;67.93;;
54416;SDS011;40326;51.220;7.250;2022-08-18T03:19:02;172.25;;;69.43;;
54416;SDS011;40326;51.220;7.250;2022-08-18T03:21:29;171.05;;;68.60;;
54416;SDS011;40326;51.220;7.250;2022-08-18T03:24:00;177.63;;;71.95;;
54416;SDS011;40326;51.220;7.250;2022-08-18T03:26:26;173.30;;;68.05;;
54416;SDS011;40326;51.220;7.250;2022-08-18T03:28:54;171.35;;;68.72;;
54416;SDS011;40326;51.220;7.250;2022-08-18T03:31:21;182.70;;;70.50;;
54416;SDS011;40326;51.220;7.250;2022-08-18T03:33:48;174.35;;;70.03;;
54416;SDS011;40326;51.220;7.250;2022-08-18T03:36:20;173.70;;;68.28;;
54416;SDS011;40326;51.220;7.250;2022-08-18T03:38:48;144.55;;;62.28;;
54416;SDS011;40326;51.220;7.250;2022-08-18T03:41:16;146.02;;;61.60;;
54416;SDS011;40326;51.220;7.250;2022-08-18T03:43:43;141.38;;;61.92;;
54416;SDS011;40326;51.220;7.250;2022-08-18T03:46:10;131.57;;;58.05;;
54416;SDS011;40326;51.220;7.250;2022-08-18T03:48:39;121.13;;;54.35;;
54416;SDS011;40326;51.220;7.250;2022-08-18T03:51:09;119.22;;;55.08;;
54416;SDS011;40326;51.220;7.250;2022-08-18T03:53:38;124.60;;;56.97;;
54416;SDS011;40326;51.220;7.250;2022-08-18T03:56:08;115.25;;;54.53;;
54416;SDS011;40326;51.220;7.250;2022-08-18T03:58:43;115.43;;;53.13;;
54416;SDS011;40326;51.220;7.250;2022-08-18T04:01:12;107.75;;;52.78;;
54416;SDS011;40326;51.220;7.250;2022-08-18T04:03:46;105.20;;;52.10;;
54416;SDS011;40326;51.220;7.250;2022-08-18T04:06:25;102.40;;;50.40;;
54416;SDS011;40326;51.220;7.250;2022-08-18T04:08:57;109.43;;;52.35;;
54416;SDS011;40326;51.220;7.250;2022-08-18T04:11:24;103.30;;;50.28;;
54416;SDS011;40326;51.220;7.250;2022-08-18T04:13:52;98.28;;;49.55;;
54416;SDS011;40326;51.220;7.250;2022-08-18T04:16:22;97.53;;;48.97;;
54416;SDS011;40326;51.220;7.250;2022-08-18T04:18:48;101.05;;;51.13;;
54416;SDS011;40326;51.220;7.250;2022-08-18T04:21:14;95.10;;;48.90;;
54416;SDS011;40326;51.220;7.250;2022-08-18T04:23:39;91.53;;;47.70;;
54416;SDS011;40326;51.220;7.250;2022-08-18T04:26:06;90.97;;;49.60;;
54416;SDS011;40326;51.220;7.250;2022-08-18T04:28:33;88.95;;;47.25;;
54416;SDS011;40326;51.220;7.250;2022-08-18T04:31:04;93.40;;;47.28;;
54416;SDS011;40326;51.220;7.250;2022-08-18T04:33:31;92.38;;;47.72;;
54416;SDS011;40326;51.220;7.250;2022-08-18T04:35:57;84.95;;;47.10;;
54416;SDS011;40326;51.220;7.250;2022-08-18T04:38:23;71.65;;;42.08;;
54416;SDS011;40326;51.220;7.250;2022-08-18T04:40:49;73.30;;;43.30;;
54416;SDS011;40326;51.220;7.250;2022-08-18T04:43:15;78.07;;;43.97;;
54416;SDS011;40326;51.220;7.250;2022-08-18T04:45:41;74.18;;;44.92;;
54416;SDS011;40326;51.220;7.250;2022-08-18T04:48:10;71.65;;;44.53;;
54416;SDS011;40326;51.220;7.250;2022-08-18T04:50:37;73.90;;;45.28;;
54416;SDS011;40326;51.220;7.250;2022-08-18T04:53:03;79.53;;;45.80;;
54416;SDS011;40326;51.220;7.250;2022-08-18T04:55:49;73.38;;;44.97;;
54416;SDS011;40326;51.220;7.250;2022-08-18T04:58:16;73.90;;;44.10;;
54416;SDS011;40326;51.220;7.250;2022-08-18T05:00:43;75.60;;;45.28;;
54416;SDS011;40326;51.220;7.250;2022-08-18T05:03:09;79.70;;;45.83;;
54416;SDS011;40326;51.220;7.250;2022-08-18T05:05:35;79.18;;;46.85;;
54416;SDS011;40326;51.220;7.250;2022-08-18T05:08:01;78.55;;;45.25;;
54416;SDS011;40326;51.220;7.250;2022-08-18T05:10:26;76.47;;;46.63;;
54416;SDS011;40326;51.220;7.250;2022-08-18T05:12:52;71.70;;;45.05;;
54416;SDS011;40326;51.220;7.250;2022-08-18T05:15:17;83.53;;;46.85;;
54416;SDS011;40326;51.220;7.250;2022-08-18T05:17:43;77.90;;;47.22;;
54416;SDS011;40326;51.220;7.250;2022-08-18T05:20:09;77.20;;;47.50;;
54416;SDS011;40326;51.220;7.250;2022-08-18T05:22:39;75.43;;;46.15;;
54416;SDS011;40326;51.220;7.250;2022-08-18T05:25:10;86.40;;;47.42;;
54416;SDS011;40326;51.220;7.250;2022-08-18T05:27:39;85.28;;;50.03;;
54416;SDS011;40326;51.220;7.250;2022-08-18T05:30:08;85.40;;;48.83;;
54416;SDS011;40326;51.220;7.250;2022-08-18T05:32:44;86.93;;;49.42;;
54416;SDS011;40326;51.220;7.250;2022-08-18T05:35:22;92.28;;;49.92;;
54416;SDS011;40326;51.220;7.250;2022-08-18T05:40:59;84.82;;;46.05;;
54416;SDS011;40326;51.220;7.250;2022-08-18T05:43:38;83.38;;;43.67;;
54416;SDS011;40326;51.220;7.250;2022-08-18T05:46:06;82.18;;;42.40;;
54416;SDS011;40326;51.220;7.250;2022-08-18T05:48:34;85.45;;;42.60;;
54416;SDS011;40326;51.220;7.250;2022-08-18T05:51:02;84.85;;;43.80;;
54416;SDS011;40326;51.220;7.250;2022-08-18T05:53:36;88.82;;;44.58;;
54416;SDS011;40326;51.220;7.250;2022-08-18T05:56:25;71.68;;;38.42;;
54416;SDS011;40326;51.220;7.250;2022-08-18T05:59:11;78.15;;;40.28;;
54416;SDS011;40326;51.220;7.250;2022-08-18T06:01:42;76.65;;;39.25;;
54416;SDS011;40326;51.220;7.250;2022-08-18T06:07:01;63.50;;;35.65;;
54416;SDS011;40326;51.220;7.250;2022-08-18T06:09:37;66.43;;;35.75;;
54416;SDS011;40326;51.220;7.250;2022-08-18T06:12:26;60.75;;;35.55;;
54416;SDS011;40326;51.220;7.250;2022-08-18T06:28:57;54.30;;;32.22;;
54416;SDS011;40326;51.220;7.250;2022-08-18T06:31:41;49.80;;;29.98;;
54416;SDS011;40326;51.220;7.250;2022-08-18T06:36:54;51.17;;;28.25;;
54416;SDS011;40326;51.220;7.250;2022-08-18T06:42:03;49.30;;;28.20;;
54416;SDS011;40326;51.220;7.250;2022-08-18T06:44:33;42.05;;;27.70;;
54416;SDS011;40326;51.220;7.250;2022-08-18T06:47:11;46.17;;;27.85;;
54416;SDS011;40326;51.220;7.250;2022-08-18T06:49:43;43.40;;;26.77;;
54416;SDS011;40326;51.220;7.250;2022-08-18T06:52:22;42.10;;;27.75;;
54416;SDS011;40326;51.220;7.250;2022-08-18T06:54:49;41.83;;;25.42;;
54416;SDS011;40326;51.220;7.250;2022-08-18T06:57:24;39.22;;;25.95;;
54416;SDS011;40326;51.220;7.250;2022-08-18T06:59:53;38.47;;;26.67;;
54416;SDS011;40326;51.220;7.250;2022-08-18T07:02:25;38.40;;;26.13;;
54416;SDS011;40326;51.220;7.250;2022-08-18T07:04:59;33.75;;;23.40;;
54416;SDS011;40326;51.220;7.250;2022-08-18T07:07:34;36.92;;;24.95;;
54416;SDS011;40326;51.220;7.250;2022-08-18T07:10:03;35.80;;;24.65;;
54416;SDS011;40326;51.220;7.250;2022-08-18T07:12:31;36.47;;;24.70;;
54416;SDS011;40326;51.220;7.250;2022-08-18T07:15:00;34.58;;;24.35;;
54416;SDS011;40326;51.220;7.250;2022-08-18T07:17:28;36.55;;;24.88;;
54416;SDS011;40326;51.220;7.250;2022-08-18T07:20:07;37.42;;;26.33;;
54416;SDS011;40326;51.220;7.250;2022-08-18T07:25:24;38.05;;;26.00;;
54416;SDS011;40326;51.220;7.250;2022-08-18T07:27:52;39.78;;;27.02;;
54416;SDS011;40326;51.220;7.250;2022-08-18T07:32:57;40.80;;;27.85;;
54416;SDS011;40326;51.220;7.250;2022-08-18T07:35:35;41.80;;;27.65;;
54416;SDS011;40326;51.220;7.250;2022-08-18T07:41:04;39.45;;;28.83;;
54416;SDS011;40326;51.220;7.250;2022-08-18T07:46:06;43.22;;;29.50;;
54416;SDS011;40326;51.220;7.250;2022-08-18T07:48:37;39.70;;;29.08;;
54416;SDS011;40326;51.220;7.250;2022-08-18T07:54:06;40.42;;;28.55;;
54416;SDS011;40326;51.220;7.250;2022-08-18T07:56:42;39.00;;;28.45;;
54416;SDS011;40326;51.220;7.250;2022-08-18T08:04:39;37.50;;;28.33;;
54416;SDS011;40326;51.220;7.250;2022-08-18T08:07:13;36.88;;;27.58;;
54416;SDS011;40326;51.220;7.250;2022-08-18T08:14:51;34.20;;;25.85;;
54416;SDS011;40326;51.220;7.250;2022-08-18T08:22:56;32.90;;;25.98;;
54416;SDS011;40326;51.220;7.250;2022-08-18T08:31:20;32.85;;;25.23;;
54416;SDS011;40326;51.220;7.250;2022-08-18T08:36:40;32.72;;;25.92;;
54416;SDS011;40326;51.220;7.250;2022-08-18T08:39:13;29.83;;;24.55;;
54416;SDS011;40326;51.220;7.250;2022-08-18T08:42:15;31.48;;;25.65;;
54416;SDS011;40326;51.220;7.250;2022-08-18T08:44:51;29.90;;;24.20;;
54416;SDS011;40326;51.220;7.250;2022-08-18T08:47:24;31.63;;;25.65;;
54416;SDS011;40326;51.220;7.250;2022-08-18T08:49:55;30.25;;;23.13;;
54416;SDS011;40326;51.220;7.250;2022-08-18T08:52:28;31.77;;;25.35;;
54416;SDS011;40326;51.220;7.250;2022-08-18T08:55:02;29.27;;;23.30;;
54416;SDS011;40326;51.220;7.250;2022-08-18T08:57:35;28.20;;;22.48;;
54416;SDS011;40326;51.220;7.250;2022-08-18T09:00:06;30.08;;;24.60;;
54416;SDS011;40326;51.220;7.250;2022-08-18T09:08:49;30.13;;;24.70;;
54416;SDS011;40326;51.220;7.250;2022-08-18T09:14:12;29.42;;;24.33;;
54416;SDS011;40326;51.220;7.250;2022-08-18T09:25:43;29.75;;;23.88;;
54416;SDS011;40326;51.220;7.250;2022-08-18T09:30:52;29.30;;;23.33;;
54416;SDS011;40326;51.220;7.250;2022-08-18T09:38:44;26.02;;;21.55;;
54416;SDS011;40326;51.220;7.250;2022-08-18T09:41:33;26.05;;;21.58;;
54416;SDS011;40326;51.220;7.250;2022-08-18T09:44:11;26.10;;;21.80;;
54416;SDS011;40326;51.220;7.250;2022-08-18T09:46:58;26.10;;;22.63;;
54416;SDS011;40326;51.220;7.250;2022-08-18T09:51:50;26.70;;;22.27;;
54416;SDS011;40326;51.220;7.250;2022-08-18T09:54:28;28.25;;;23.75;;
54416;SDS011;40326;51.220;7.250;2022-08-18T09:57:18;26.65;;;21.67;;
54416;SDS011;40326;51.220;7.250;2022-08-18T09:59:50;29.13;;;23.67;;
54416;SDS011;40326;51.220;7.250;2022-08-18T10:07:43;29.05;;;22.38;;
54416;SDS011;40326;51.220;7.250;2022-08-18T10:10:33;26.92;;;22.33;;
54416;SDS011;40326;51.220;7.250;2022-08-18T10:22:11;29.13;;;22.02;;
54416;SDS011;40326;51.220;7.250;2022-08-18T10:27:02;31.70;;;23.67;;
54416;SDS011;40326;51.220;7.250;2022-08-18T10:32:20;29.77;;;23.05;;
54416;SDS011;40326;51.220;7.250;2022-08-18T10:34:49;29.73;;;23.63;;
54416;SDS011;40326;51.220;7.250;2022-08-18T10:37:35;30.02;;;23.02;;
54416;SDS011;40326;51.220;7.250;2022-08-18T10:40:03;31.58;;;25.65;;
54416;SDS011;40326;51.220;7.250;2022-08-18T10:42:41;30.70;;;24.90;;
54416;SDS011;40326;51.220;7.250;2022-08-18T10:45:27;33.63;;;25.55;;
54416;SDS011;40326;51.220;7.250;2022-08-18T10:50:51;29.25;;;23.77;;
54416;SDS011;40326;51.220;7.250;2022-08-18T10:56:00;28.17;;;24.15;;
54416;SDS011;40326;51.220;7.250;2022-08-18T11:01:23;28.52;;;24.38;;
54416;SDS011;40326;51.220;7.250;2022-08-18T11:04:07;29.90;;;25.10;;
54416;SDS011;40326;51.220;7.250;2022-08-18T11:06:47;30.75;;;26.05;;
54416;SDS011;40326;51.220;7.250;2022-08-18T11:09:26;30.65;;;25.83;;
54416;SDS011;40326;51.220;7.250;2022-08-18T11:11:53;31.30;;;26.23;;
54416;SDS011;40326;51.220;7.250;2022-08-18T11:17:18;31.45;;;24.35;;
54416;SDS011;40326;51.220;7.250;2022-08-18T11:19:57;27.20;;;22.45;;
54416;SDS011;40326;51.220;7.250;2022-08-18T11:24:55;25.08;;;22.23;;
54416;SDS011;40326;51.220;7.250;2022-08-18T11:27:22;28.50;;;22.38;;
54416;SDS011;40326;51.220;7.250;2022-08-18T11:29:49;25.63;;;20.85;;
54416;SDS011;40326;51.220;7.250;2022-08-18T11:32:21;26.25;;;23.40;;
54416;SDS011;40326;51.220;7.250;2022-08-18T11:34:52;24.55;;;21.27;;
54416;SDS011;40326;51.220;7.250;2022-08-18T11:42:48;24.63;;;20.90;;
54416;SDS011;40326;51.220;7.250;2022-08-18T11:45:19;22.52;;;19.45;;
54416;SDS011;40326;51.220;7.250;2022-08-18T11:50:28;24.05;;;21.45;;
54416;SDS011;40326;51.220;7.250;2022-08-18T11:52:55;27.73;;;20.60;;
54416;SDS011;40326;51.220;7.250;2022-08-18T11:55:28;19.65;;;17.55;;
54416;SDS011;40326;51.220;7.250;2022-08-18T11:57:56;22.55;;;19.83;;
54416;SDS011;40326;51.220;7.250;2022-08-18T12:03:04;23.70;;;21.17;;
54416;SDS011;40326;51.220;7.250;2022-08-18T12:05:54;23.77;;;19.65;;
54416;SDS011;40326;51.220;7.250;2022-08-18T12:11:03;22.40;;;19.70;;
54416;SDS011;40326;51.220;7.250;2022-08-18T12:13:40;25.15;;;21.30;;
54416;SDS011;40326;51.220;7.250;2022-08-18T12:16:24;22.50;;;20.20;;
54416;SDS011;40326;51.220;7.250;2022-08-18T12:19:06;20.77;;;18.58;;
54416;SDS011;40326;51.220;7.250;2022-08-18T12:21:37;22.50;;;19.65;;
54416;SDS011;40326;51.220;7.250;2022-08-18T12:24:10;19.95;;;17.95;;
54416;SDS011;40326;51.220;7.250;2022-08-18T12:26:44;23.00;;;20.60;;
54416;SDS011;40326;51.220;7.250;2022-08-18T12:29:09;19.75;;;17.83;;
54416;SDS011;40326;51.220;7.250;2022-08-18T12:31:34;18.98;;;17.02;;
54416;SDS011;40326;51.220;7.250;2022-08-18T12:34:00;19.42;;;17.38;;
54416;SDS011;40326;51.220;7.250;2022-08-18T12:36:25;20.83;;;18.75;;
54416;SDS011;40326;51.220;7.250;2022-08-18T12:38:53;20.65;;;18.45;;
54416;SDS011;40326;51.220;7.250;2022-08-18T12:41:19;19.67;;;17.77;;
54416;SDS011;40326;51.220;7.250;2022-08-18T12:43:45;20.92;;;18.73;;
54416;SDS011;40326;51.220;7.250;2022-08-18T12:46:11;20.42;;;18.42;;
54416;SDS011;40326;51.220;7.250;2022-08-18T12:48:37;23.35;;;20.95;;
54416;SDS011;40326;51.220;7.250;2022-08-18T12:51:03;22.67;;;20.33;;
54416;SDS011;40326;51.220;7.250;2022-08-18T12:53:29;23.77;;;21.38;;
54416;SDS011;40326;51.220;7.250;2022-08-18T12:55:54;23.20;;;20.90;;
54416;SDS011;40326;51.220;7.250;2022-08-18T12:58:20;23.48;;;20.98;;
54416;SDS011;40326;51.220;7.250;2022-08-18T13:00:46;21.30;;;19.10;;
54416;SDS011;40326;51.220;7.250;2022-08-18T13:03:12;23.20;;;20.50;;
54416;SDS011;40326;51.220;7.250;2022-08-18T13:05:37;23.60;;;21.15;;
54416;SDS011;40326;51.220;7.250;2022-08-18T13:08:04;22.65;;;20.23;;
54416;SDS011;40326;51.220;7.250;2022-08-18T13:10:33;24.08;;;21.58;;
54416;SDS011;40326;51.220;7.250;2022-08-18T13:12:59;20.70;;;18.65;;
54416;SDS011;40326;51.220;7.250;2022-08-18T13:15:24;21.13;;;19.02;;
54416;SDS011;40326;51.220;7.250;2022-08-18T13:17:50;21.67;;;18.67;;
54416;SDS011;40326;51.220;7.250;2022-08-18T13:20:15;19.98;;;17.95;;
54416;SDS011;40326;51.220;7.250;2022-08-18T13:22:41;21.02;;;18.83;;
54416;SDS011;40326;51.220;7.250;2022-08-18T13:25:08;20.65;;;18.55;;
54416;SDS011;40326;51.220;7.250;2022-08-18T13:27:36;21.80;;;19.48;;
54416;SDS011;40326;51.220;7.250;2022-08-18T13:30:09;21.08;;;18.95;;
54416;SDS011;40326;51.220;7.250;2022-08-18T13:32:36;21.77;;;19.58;;
54416;SDS011;40326;51.220;7.250;2022-08-18T13:35:02;21.50;;;19.40;;
54416;SDS011;40326;51.220;7.250;2022-08-18T13:37:28;21.17;;;19.02;;
54416;SDS011;40326;51.220;7.250;2022-08-18T13:39:57;19.90;;;17.92;;
54416;SDS011;40326;51.220;7.250;2022-08-18T13:42:23;21.63;;;19.52;;
54416;SDS011;40326;51.220;7.250;2022-08-18T13:44:49;21.50;;;19.35;;
54416;SDS011;40326;51.220;7.250;2022-08-18T13:47:15;23.92;;;21.48;;
54416;SDS011;40326;51.220;7.250;2022-08-18T13:49:41;24.00;;;21.58;;
54416;SDS011;40326;51.220;7.250;2022-08-18T13:52:06;23.05;;;20.65;;
54416;SDS011;40326;51.220;7.250;2022-08-18T13:54:36;23.38;;;20.35;;
54416;SDS011;40326;51.220;7.250;2022-08-18T13:57:02;23.20;;;20.80;;
54416;SDS011;40326;51.220;7.250;2022-08-18T13:59:28;24.55;;;22.08;;
54416;SDS011;40326;51.220;7.250;2022-08-18T14:01:58;23.35;;;20.95;;
54416;SDS011;40326;51.220;7.250;2022-08-18T14:04:25;24.63;;;22.13;;
54416;SDS011;40326;51.220;7.250;2022-08-18T14:06:52;23.77;;;21.38;;
54416;SDS011;40326;51.220;7.250;2022-08-18T14:09:19;21.70;;;19.55;;
54416;SDS011;40326;51.220;7.250;2022-08-18T14:11:44;23.05;;;20.65;;
54416;SDS011;40326;51.220;7.250;2022-08-18T14:14:11;23.83;;;21.35;;
54416;SDS011;40326;51.220;7.250;2022-08-18T14:16:37;23.98;;;21.52;;
54416;SDS011;40326;51.220;7.250;2022-08-18T14:19:03;22.92;;;20.70;;
54416;SDS011;40326;51.220;7.250;2022-08-18T14:21:49;22.35;;;19.90;;
54416;SDS011;40326;51.220;7.250;2022-08-18T14:24:34;21.67;;;19.60;;
54416;SDS011;40326;51.220;7.250;2022-08-18T14:27:24;23.13;;;20.80;;
54416;SDS011;40326;51.220;7.250;2022-08-18T14:29:54;22.52;;;20.33;;
54416;SDS011;40326;51.220;7.250;2022-08-18T14:32:20;21.67;;;19.58;;
54416;SDS011;40326;51.220;7.250;2022-08-18T14:34:47;22.83;;;20.60;;
54416;SDS011;40326;51.220;7.250;2022-08-18T14:37:12;21.17;;;19.17;;
54416;SDS011;40326;51.220;7.250;2022-08-18T14:39:38;22.08;;;19.88;;
54416;SDS011;40326;51.220;7.250;2022-08-18T14:42:04;24.48;;;21.88;;
54416;SDS011;40326;51.220;7.250;2022-08-18T14:44:30;22.55;;;20.35;;
54416;SDS011;40326;51.220;7.250;2022-08-18T14:46:55;22.38;;;20.20;;
54416;SDS011;40326;51.220;7.250;2022-08-18T14:49:24;20.83;;;18.65;;
54416;SDS011;40326;51.220;7.250;2022-08-18T14:51:50;20.00;;;17.90;;
54416;SDS011;40326;51.220;7.250;2022-08-18T14:54:16;20.33;;;18.23;;
54416;SDS011;40326;51.220;7.250;2022-08-18T14:56:41;21.10;;;19.00;;
54416;SDS011;40326;51.220;7.250;2022-08-18T14:59:06;20.58;;;18.58;;
54416;SDS011;40326;51.220;7.250;2022-08-18T15:01:33;18.98;;;17.15;;
54416;SDS011;40326;51.220;7.250;2022-08-18T15:04:00;19.02;;;17.05;;
54416;SDS011;40326;51.220;7.250;2022-08-18T15:06:26;19.20;;;17.30;;
54416;SDS011;40326;51.220;7.250;2022-08-18T15:08:51;18.58;;;16.70;;
54416;SDS011;40326;51.220;7.250;2022-08-18T15:11:17;18.25;;;16.35;;
54416;SDS011;40326;51.220;7.250;2022-08-18T15:13:42;19.35;;;17.08;;
54416;SDS011;40326;51.220;7.250;2022-08-18T15:16:10;17.25;;;15.55;;
54416;SDS011;40326;51.220;7.250;2022-08-18T15:18:38;18.38;;;16.45;;
54416;SDS011;40326;51.220;7.250;2022-08-18T15:21:04;17.10;;;15.40;;
54416;SDS011;40326;51.220;7.250;2022-08-18T15:23:48;16.77;;;14.65;;
54416;SDS011;40326;51.220;7.250;2022-08-18T15:26:32;15.70;;;14.27;;
54416;SDS011;40326;51.220;7.250;2022-08-18T15:28:57;15.48;;;14.18;;
54416;SDS011;40326;51.220;7.250;2022-08-18T15:31:23;14.38;;;13.05;;
54416;SDS011;40326;51.220;7.250;2022-08-18T15:33:50;17.50;;;15.90;;
54416;SDS011;40326;51.220;7.250;2022-08-18T15:36:15;17.20;;;15.50;;
54416;SDS011;40326;51.220;7.250;2022-08-18T15:38:45;16.60;;;14.98;;
54416;SDS011;40326;51.220;7.250;2022-08-18T15:43:51;15.75;;;14.18;;
54416;SDS011;40326;51.220;7.250;2022-08-18T15:46:17;15.40;;;13.90;;
54416;SDS011;40326;51.220;7.250;2022-08-18T15:48:43;14.40;;;13.10;;
54416;SDS011;40326;51.220;7.250;2022-08-18T15:51:08;16.35;;;14.77;;
54416;SDS011;40326;51.220;7.250;2022-08-18T15:53:34;14.77;;;13.48;;
54416;SDS011;40326;51.220;7.250;2022-08-18T15:55:59;14.02;;;12.73;;
54416;SDS011;40326;51.220;7.250;2022-08-18T15:58:24;14.90;;;13.50;;
54416;SDS011;40326;51.220;7.250;2022-08-18T16:00:50;14.45;;;12.98;;
54416;SDS011;40326;51.220;7.250;2022-08-18T16:03:16;13.80;;;12.48;;
54416;SDS011;40326;51.220;7.250;2022-08-18T16:05:45;13.05;;;11.85;;
54416;SDS011;40326;51.220;7.250;2022-08-18T16:08:15;13.27;;;12.18;;
54416;SDS011;40326;51.220;7.250;2022-08-18T16:10:42;14.48;;;12.98;;
54416;SDS011;40326;51.220;7.250;2022-08-18T16:13:07;12.82;;;11.38;;
54416;SDS011;40326;51.220;7.250;2022-08-18T16:15:34;21.45;;;12.50;;
54416;SDS011;40326;51.220;7.250;2022-08-18T16:18:02;13.45;;;11.80;;
54416;SDS011;40326;51.220;7.250;2022-08-18T16:20:28;12.68;;;11.38;;
54416;SDS011;40326;51.220;7.250;2022-08-18T16:22:54;12.60;;;11.40;;
54416;SDS011;40326;51.220;7.250;2022-08-18T16:25:21;12.13;;;10.82;;
54416;SDS011;40326;51.220;7.250;2022-08-18T16:27:47;11.57;;;10.38;;
54416;SDS011;40326;51.220;7.250;2022-08-18T16:30:17;11.82;;;10.73;;
54416;SDS011;40326;51.220;7.250;2022-08-18T16:32:46;13.35;;;11.43;;
54416;SDS011;40326;51.220;7.250;2022-08-18T16:35:12;12.25;;;10.48;;
54416;SDS011;40326;51.220;7.250;2022-08-18T16:37:38;11.68;;;10.57;;
54416;SDS011;40326;51.220;7.250;2022-08-18T16:40:04;11.48;;;10.45;;
54416;SDS011;40326;51.220;7.250;2022-08-18T16:42:30;11.30;;;10.30;;
54416;SDS011;40326;51.220;7.250;2022-08-18T16:45:00;11.77;;;10.77;;
54416;SDS011;40326;51.220;7.250;2022-08-18T16:47:26;11.80;;;10.65;;
54416;SDS011;40326;51.220;7.250;2022-08-18T16:49:52;12.18;;;10.90;;
54416;SDS011;40326;51.220;7.250;2022-08-18T16:52:18;11.98;;;10.80;;
54416;SDS011;40326;51.220;7.250;2022-08-18T16:54:44;10.85;;;9.85;;
54416;SDS011;40326;51.220;7.250;2022-08-18T16:57:11;10.85;;;9.73;;
54416;SDS011;40326;51.220;7.250;2022-08-18T16:59:37;10.88;;;9.30;;